createdAt,value
2023-01-11T00:00:17.505Z,1.00
2023-01-11T00:01:17.826Z,1.00
2023-01-11T00:02:18.164Z,0.00
2023-01-11T00:03:18.408Z,0.00
2023-01-11T00:04:18.765Z,0.00
2023-01-11T00:05:18.989Z,0.00
2023-01-11T00:06:19.390Z,0.00
2023-01-11T00:07:19.562Z,0.00
2023-01-11T00:08:19.880Z,0.00
2023-01-11T00:09:20.180Z,0.00
2023-01-11T00:10:20.517Z,0.00
2023-01-11T00:11:20.728Z,0.00
2023-01-11T00:12:21.035Z,0.00
2023-01-11T00:13:21.407Z,0.00
2023-01-11T00:14:21.590Z,0.00
2023-01-11T00:15:21.962Z,0.00
2023-01-11T00:16:22.175Z,0.00
2023-01-11T00:17:22.363Z,0.00
2023-01-11T00:18:22.698Z,0.00
2023-01-11T00:19:22.963Z,0.00
2023-01-11T00:20:23.276Z,0.00
2023-01-11T00:21:23.471Z,0.00
2023-01-11T00:22:23.755Z,0.00
2023-01-11T00:23:24.080Z,0.00
2023-01-11T00:24:24.471Z,0.00
2023-01-11T00:25:24.661Z,0.00
2023-01-11T00:26:25.051Z,0.00
2023-01-11T00:27:25.324Z,0.00
2023-01-11T00:28:25.640Z,0.00
2023-01-11T00:29:25.966Z,0.00
2023-01-11T00:30:26.277Z,0.00
2023-01-11T00:31:26.612Z,0.00
2023-01-11T00:32:26.879Z,0.00
2023-01-11T00:33:27.172Z,0.00
2023-01-11T00:34:27.459Z,0.00
2023-01-11T00:35:27.889Z,0.00
2023-01-11T00:36:28.139Z,0.00
2023-01-11T00:37:28.389Z,0.00
2023-01-11T00:38:28.587Z,0.00
2023-01-11T00:39:28.771Z,0.00
2023-01-11T00:40:29.107Z,0.00
2023-01-11T00:41:29.384Z,0.00
2023-01-11T00:42:29.776Z,0.00
2023-01-11T00:43:29.968Z,0.00
2023-01-11T00:44:30.297Z,0.00
2023-01-11T00:45:30.591Z,0.00
2023-01-11T00:46:30.899Z,0.00
2023-01-11T00:47:31.238Z,0.00
2023-01-11T00:48:31.538Z,0.00
2023-01-11T00:49:31.869Z,0.00
2023-01-11T00:50:32.081Z,0.00
2023-01-11T00:51:32.381Z,0.00
2023-01-11T00:52:32.712Z,0.00
2023-01-11T00:53:33.021Z,0.00
2023-01-11T00:54:33.374Z,0.00
2023-01-11T00:55:33.535Z,0.00
2023-01-11T00:56:33.868Z,0.00
2023-01-11T00:57:34.167Z,0.00
2023-01-11T00:58:34.447Z,0.00
2023-01-11T00:59:34.747Z,0.00
2023-01-11T01:00:35.104Z,0.00
2023-01-11T01:01:35.404Z,0.00
2023-01-11T01:02:35.778Z,0.00
2023-01-11T01:03:36.017Z,0.00
2023-01-11T01:04:36.307Z,0.00
2023-01-11T01:05:36.614Z,0.00
2023-01-11T01:06:37.054Z,0.00
2023-01-11T01:07:37.200Z,0.00
2023-01-11T01:08:37.601Z,0.00
2023-01-11T01:09:37.804Z,0.00
2023-01-11T01:10:38.122Z,0.00
2023-01-11T01:11:38.498Z,0.00
2023-01-11T01:12:38.719Z,0.00
2023-01-11T01:13:38.984Z,0.00
2023-01-11T01:14:39.350Z,0.00
2023-01-11T01:15:39.647Z,0.00
2023-01-11T01:16:39.999Z,0.00
2023-01-11T01:17:40.413Z,0.00
2023-01-11T01:18:40.576Z,0.00
2023-01-11T01:19:40.868Z,0.00
2023-01-11T01:20:41.150Z,0.00
2023-01-11T01:21:41.431Z,0.00
2023-01-11T01:22:41.746Z,0.00
2023-01-11T01:23:42.049Z,0.00
2023-01-11T01:24:42.330Z,0.00
2023-01-11T01:25:42.701Z,0.00
2023-01-11T01:26:42.943Z,0.00
2023-01-11T01:27:43.246Z,0.00
2023-01-11T01:28:43.520Z,0.00
2023-01-11T01:29:43.817Z,0.00
2023-01-11T01:30:44.155Z,0.00
2023-01-11T01:31:44.371Z,0.00
2023-01-11T01:32:44.621Z,0.00
2023-01-11T01:33:44.913Z,0.00
2023-01-11T01:34:45.204Z,0.00
2023-01-11T01:35:45.506Z,0.00
2023-01-11T01:36:45.821Z,0.00
2023-01-11T01:37:46.150Z,0.00
2023-01-11T01:38:46.485Z,0.00
2023-01-11T01:39:46.773Z,0.00
2023-01-11T01:40:47.032Z,0.00
2023-01-11T01:41:47.336Z,0.00
2023-01-11T01:42:47.620Z,0.00
2023-01-11T01:43:47.911Z,0.00
2023-01-11T01:44:48.264Z,0.00
2023-01-11T01:45:48.509Z,0.00
2023-01-11T01:46:48.837Z,0.00
2023-01-11T01:47:49.172Z,0.00
2023-01-11T01:48:49.489Z,0.00
2023-01-11T01:49:49.857Z,0.00
2023-01-11T01:50:50.041Z,0.00
2023-01-11T01:51:50.319Z,0.00
2023-01-11T01:52:50.655Z,0.00
2023-01-11T01:53:50.907Z,0.00
2023-01-11T01:54:51.273Z,0.00
2023-01-11T01:55:51.583Z,0.00
2023-01-11T01:56:51.918Z,0.00
2023-01-11T01:57:52.196Z,0.00
2023-01-11T01:58:52.539Z,0.00
2023-01-11T01:59:52.813Z,0.00
2023-01-11T02:00:53.141Z,0.00
2023-01-11T02:01:53.497Z,0.00
2023-01-11T02:02:53.777Z,0.00
2023-01-11T02:03:53.977Z,0.00
2023-01-11T02:04:54.265Z,0.00
2023-01-11T02:05:54.572Z,0.00
2023-01-11T02:06:54.943Z,0.00
2023-01-11T02:07:55.104Z,0.00
2023-01-11T02:08:55.425Z,0.00
2023-01-11T02:09:55.741Z,0.00
2023-01-11T02:10:56.041Z,0.00
2023-01-11T02:11:56.360Z,0.00
2023-01-11T02:12:56.658Z,0.00
2023-01-11T02:13:56.928Z,0.00
2023-01-11T02:14:57.236Z,0.00
2023-01-11T02:15:57.515Z,0.00
2023-01-11T02:16:57.867Z,0.00
2023-01-11T02:17:58.043Z,0.00
2023-01-11T02:18:58.364Z,0.00
2023-01-11T02:19:58.660Z,0.00
2023-01-11T02:20:58.996Z,0.00
2023-01-11T02:21:59.282Z,0.00
2023-01-11T02:22:59.565Z,0.00
2023-01-11T02:23:59.842Z,0.00
2023-01-11T02:25:00.193Z,0.00
2023-01-11T02:26:00.469Z,0.00
2023-01-11T02:27:00.745Z,1.00
2023-01-11T02:28:01.011Z,0.00
2023-01-11T02:29:01.400Z,0.00
2023-01-11T02:30:01.694Z,0.00
2023-01-11T02:31:02.036Z,0.00
2023-01-11T02:32:02.341Z,0.00
2023-01-11T02:33:02.641Z,0.00
2023-01-11T02:34:02.938Z,0.00
2023-01-11T02:35:03.239Z,0.00
2023-01-11T02:36:03.438Z,0.00
2023-01-11T02:37:03.799Z,0.00
2023-01-11T02:38:04.070Z,0.00
2023-01-11T02:39:04.388Z,0.00
2023-01-11T02:40:04.740Z,0.00
2023-01-11T02:41:05.023Z,0.00
2023-01-11T02:42:05.288Z,0.00
2023-01-11T02:43:05.604Z,0.00
2023-01-11T02:44:05.896Z,0.00
2023-01-11T02:45:06.212Z,0.00
2023-01-11T02:46:06.563Z,0.00
2023-01-11T02:47:06.860Z,0.00
2023-01-11T02:48:07.129Z,0.00
2023-01-11T02:49:07.489Z,0.00
2023-01-11T02:50:07.768Z,0.00
2023-01-11T02:51:08.097Z,0.00
2023-01-11T02:52:08.394Z,0.00
2023-01-11T02:53:08.713Z,0.00
2023-01-11T02:54:09.036Z,0.00
2023-01-11T02:55:09.343Z,0.00
2023-01-11T02:56:10.600Z,0.00
2023-01-11T02:57:09.894Z,0.00
2023-01-11T02:58:10.199Z,0.00
2023-01-11T02:59:10.554Z,0.00
2023-01-11T03:00:10.810Z,0.00
2023-01-11T03:01:11.168Z,0.00
2023-01-11T03:02:11.405Z,0.00
2023-01-11T03:03:11.696Z,0.00
2023-01-11T03:04:12.033Z,0.00
2023-01-11T03:05:12.376Z,0.00
2023-01-11T03:06:12.612Z,0.00
2023-01-11T03:07:12.923Z,0.00
2023-01-11T03:08:13.214Z,0.00
2023-01-11T03:09:13.514Z,0.00
2023-01-11T03:10:13.863Z,0.00
2023-01-11T03:11:14.108Z,0.00
2023-01-11T03:12:14.393Z,0.00
2023-01-11T03:13:14.783Z,0.00
2023-01-11T03:14:14.979Z,0.00
2023-01-11T03:15:15.280Z,0.00
2023-01-11T03:16:15.694Z,0.00
2023-01-11T03:17:15.860Z,0.00
2023-01-11T03:18:16.173Z,0.00
2023-01-11T03:19:16.513Z,0.00
2023-01-11T03:20:16.807Z,0.00
2023-01-11T03:21:17.121Z,0.00
2023-01-11T03:22:17.410Z,0.00
2023-01-11T03:23:17.713Z,0.00
2023-01-11T03:24:17.992Z,0.00
2023-01-11T03:25:18.309Z,0.00
2023-01-11T03:26:18.562Z,0.00
2023-01-11T03:27:18.905Z,0.00
2023-01-11T03:28:19.160Z,0.00
2023-01-11T03:29:19.459Z,0.00
2023-01-11T03:30:19.750Z,0.00
2023-01-11T03:31:20.118Z,0.00
2023-01-11T03:32:20.358Z,0.00
2023-01-11T03:33:20.655Z,0.00
2023-01-11T03:34:20.981Z,0.00
2023-01-11T03:35:21.269Z,0.00
2023-01-11T03:36:21.542Z,0.00
2023-01-11T03:37:21.878Z,0.00
2023-01-11T03:38:22.253Z,0.00
2023-01-11T03:39:22.469Z,0.00
2023-01-11T03:40:22.634Z,0.00
2023-01-11T03:41:22.924Z,0.00
2023-01-11T03:42:23.233Z,0.00
2023-01-11T03:43:23.553Z,0.00
2023-01-11T03:44:23.796Z,1.00
2023-01-11T03:45:24.149Z,0.00
2023-01-11T03:46:24.573Z,0.00
2023-01-11T03:47:24.748Z,0.00
2023-01-11T03:48:25.070Z,0.00
2023-01-11T03:49:25.334Z,0.00
2023-01-11T03:50:25.548Z,0.00
2023-01-11T03:51:25.893Z,0.00
2023-01-11T03:52:26.188Z,0.00
2023-01-11T03:53:26.512Z,0.00
2023-01-11T03:54:26.800Z,0.00
2023-01-11T03:55:27.245Z,0.00
2023-01-11T03:56:27.406Z,0.00
2023-01-11T03:57:27.744Z,0.00
2023-01-11T03:58:28.074Z,0.00
2023-01-11T03:59:28.360Z,0.00
2023-01-11T04:00:28.718Z,0.00
2023-01-11T04:01:28.993Z,0.00
2023-01-11T04:02:29.426Z,0.00
2023-01-11T04:03:29.577Z,0.00
2023-01-11T04:04:29.892Z,0.00
2023-01-11T04:05:30.218Z,0.00
2023-01-11T04:06:30.525Z,0.00
2023-01-11T04:07:30.837Z,0.00
2023-01-11T04:08:31.155Z,0.00
2023-01-11T04:09:31.463Z,0.00
2023-01-11T04:10:31.763Z,0.00
2023-01-11T04:11:32.070Z,0.00
2023-01-11T04:12:32.397Z,0.00
2023-01-11T04:13:33.115Z,0.00
2023-01-11T04:14:33.025Z,0.00
2023-01-11T04:15:33.340Z,0.00
2023-01-11T04:16:33.707Z,0.00
2023-01-11T04:17:33.995Z,0.00
2023-01-11T04:18:34.293Z,0.00
2023-01-11T04:19:34.584Z,0.00
2023-01-11T04:20:34.885Z,0.00
2023-01-11T04:21:35.249Z,0.00
2023-01-11T04:22:35.361Z,1.00
2023-01-11T04:23:35.717Z,0.00
2023-01-11T04:24:35.989Z,0.00
2023-01-11T04:25:36.378Z,0.00
2023-01-11T04:26:36.563Z,0.00
2023-01-11T04:27:37.793Z,0.00
2023-01-11T04:28:38.022Z,1.00
2023-01-11T04:29:37.447Z,0.00
2023-01-11T04:30:37.827Z,0.00
2023-01-11T04:31:38.035Z,0.00
2023-01-11T04:32:38.297Z,0.00
2023-01-11T04:33:38.678Z,0.00
2023-01-11T04:34:38.900Z,0.00
2023-01-11T04:35:39.198Z,0.00
2023-01-11T04:36:39.399Z,0.00
2023-01-11T04:37:39.764Z,0.00
2023-01-11T04:38:40.055Z,0.00
2023-01-11T04:39:40.368Z,0.00
2023-01-11T04:40:40.676Z,0.00
2023-01-11T04:41:41.027Z,0.00
2023-01-11T04:42:41.302Z,0.00
2023-01-11T04:43:41.516Z,0.00
2023-01-11T04:44:41.883Z,0.00
2023-01-11T04:45:42.068Z,0.00
2023-01-11T04:46:42.506Z,0.00
2023-01-11T04:47:42.534Z,0.00
2023-01-11T04:48:42.819Z,0.00
2023-01-11T04:49:43.086Z,0.00
2023-01-11T04:50:43.347Z,0.00
2023-01-11T04:51:43.545Z,0.00
2023-01-11T04:52:43.853Z,0.00
2023-01-11T04:53:44.204Z,0.00
2023-01-11T04:54:44.389Z,1.00
2023-01-11T04:55:44.741Z,0.00
2023-01-11T04:56:44.995Z,0.00
2023-01-11T04:57:45.313Z,0.00
2023-01-11T04:58:45.629Z,0.00
2023-01-11T04:59:45.965Z,0.00
2023-01-11T05:00:46.384Z,0.00
2023-01-11T05:01:46.579Z,0.00
2023-01-11T05:02:46.889Z,0.00
2023-01-11T05:03:47.221Z,0.00
2023-01-11T05:04:47.459Z,0.00
2023-01-11T05:05:47.659Z,0.00
2023-01-11T05:06:48.113Z,0.00
2023-01-11T05:07:48.322Z,0.00
2023-01-11T05:08:48.561Z,0.00
2023-01-11T05:09:48.878Z,0.00
2023-01-11T05:10:49.104Z,0.00
2023-01-11T05:11:49.441Z,0.00
2023-01-11T05:12:49.761Z,0.00
2023-01-11T05:13:50.066Z,0.00
2023-01-11T05:14:50.298Z,1.00
2023-01-11T05:15:50.667Z,0.00
2023-01-11T05:16:50.988Z,0.00
2023-01-11T05:17:51.213Z,0.00
2023-01-11T05:18:51.511Z,0.00
2023-01-11T05:19:51.791Z,0.00
2023-01-11T05:20:52.094Z,0.00
2023-01-11T05:21:52.402Z,0.00
2023-01-11T05:22:52.687Z,0.00
2023-01-11T05:23:53.014Z,0.00
2023-01-11T05:24:53.291Z,0.00
2023-01-11T05:25:53.621Z,0.00
2023-01-11T05:26:53.888Z,0.00
2023-01-11T05:27:54.215Z,0.00
2023-01-11T05:28:54.439Z,0.00
2023-01-11T05:29:54.768Z,0.00
2023-01-11T05:30:55.065Z,0.00
2023-01-11T05:31:55.404Z,0.00
2023-01-11T05:32:55.690Z,0.00
2023-01-11T05:33:55.998Z,0.00
2023-01-11T05:34:56.281Z,1.00
2023-01-11T05:35:56.587Z,0.00
2023-01-11T05:36:56.954Z,0.00
2023-01-11T05:37:57.150Z,0.00
2023-01-11T05:38:57.381Z,0.00
2023-01-11T05:39:57.658Z,0.00
2023-01-11T05:40:57.947Z,0.00
2023-01-11T05:41:58.305Z,0.00
2023-01-11T05:42:58.485Z,0.00
2023-01-11T05:43:58.793Z,0.00
2023-01-11T05:44:59.042Z,0.00
2023-01-11T05:45:59.414Z,0.00
2023-01-11T05:46:59.595Z,1.00
2023-01-11T05:47:59.940Z,0.00
2023-01-11T05:49:00.205Z,0.00
2023-01-11T05:50:00.475Z,1.00
2023-01-11T05:51:01.643Z,0.00
2023-01-11T05:52:01.111Z,0.00
2023-01-11T05:53:01.390Z,0.00
2023-01-11T05:54:01.678Z,0.00
2023-01-11T05:55:01.958Z,0.00
2023-01-11T05:56:02.323Z,0.00
2023-01-11T05:57:02.514Z,0.00
2023-01-11T05:58:02.822Z,0.00
2023-01-11T05:59:03.111Z,0.00
2023-01-11T06:00:03.440Z,0.00
2023-01-11T06:01:03.664Z,0.00
2023-01-11T06:02:03.994Z,0.00
2023-01-11T06:03:04.231Z,0.00
2023-01-11T06:04:04.536Z,0.00
2023-01-11T06:05:04.773Z,1.00
2023-01-11T06:06:05.122Z,0.00
2023-01-11T06:07:05.343Z,1.00
2023-01-11T06:08:05.657Z,0.00
2023-01-11T06:09:05.956Z,0.00
2023-01-11T06:10:06.375Z,0.00
2023-01-11T06:11:06.578Z,0.00
2023-01-11T06:12:06.918Z,0.00
2023-01-11T06:13:07.262Z,0.00
2023-01-11T06:14:07.521Z,0.00
2023-01-11T06:15:07.847Z,0.00
2023-01-11T06:16:08.334Z,0.00
2023-01-11T06:17:08.490Z,0.00
2023-01-11T06:18:08.757Z,0.00
2023-01-11T06:19:09.049Z,0.00
2023-01-11T06:20:09.233Z,1.00
2023-01-11T06:21:09.550Z,0.00
2023-01-11T06:22:09.885Z,0.00
2023-01-11T06:23:10.057Z,1.00
2023-01-11T06:24:10.482Z,0.00
2023-01-11T06:25:10.854Z,0.00
2023-01-11T06:26:11.027Z,0.00
2023-01-11T06:27:11.310Z,0.00
2023-01-11T06:28:11.639Z,0.00
2023-01-11T06:29:11.888Z,0.00
2023-01-11T06:30:12.181Z,0.00
2023-01-11T06:31:12.539Z,0.00
2023-01-11T06:32:12.801Z,0.00
2023-01-11T06:33:13.109Z,0.00
2023-01-11T06:34:13.346Z,0.00
2023-01-11T06:35:13.586Z,0.00
2023-01-11T06:36:13.826Z,0.00
2023-01-11T06:37:14.147Z,0.00
2023-01-11T06:38:14.439Z,0.00
2023-01-11T06:39:14.738Z,0.00
2023-01-11T06:40:15.085Z,0.00
2023-01-11T06:41:15.287Z,0.00
2023-01-11T06:42:15.684Z,0.00
2023-01-11T06:43:15.851Z,0.00
2023-01-11T06:44:16.135Z,0.00
2023-01-11T06:45:16.423Z,0.00
2023-01-11T06:46:16.718Z,0.00
2023-01-11T06:47:16.926Z,1.00
2023-01-11T06:48:17.189Z,1.00
2023-01-11T06:49:17.346Z,1.00
2023-01-11T06:50:17.779Z,0.00
2023-01-11T06:51:18.515Z,1.00
2023-01-11T06:52:18.569Z,1.00
2023-01-11T06:53:18.650Z,0.00
2023-01-11T06:54:18.881Z,1.00
2023-01-11T06:55:19.133Z,0.00
2023-01-11T06:56:19.437Z,0.00
2023-01-11T06:57:19.795Z,0.00
2023-01-11T06:58:20.097Z,0.00
2023-01-11T06:59:20.368Z,1.00
2023-01-11T07:00:20.720Z,0.00
2023-01-11T07:01:20.969Z,1.00
2023-01-11T07:02:21.255Z,0.00
2023-01-11T07:03:21.545Z,0.00
2023-01-11T07:04:21.753Z,1.00
2023-01-11T07:05:22.099Z,1.00
2023-01-11T07:06:22.337Z,1.00
2023-01-11T07:07:22.557Z,1.00
2023-01-11T07:08:22.961Z,0.00
2023-01-11T07:09:23.174Z,0.00
2023-01-11T07:10:23.420Z,1.00
2023-01-11T07:11:23.845Z,0.00
2023-01-11T07:12:24.018Z,1.00
2023-01-11T07:13:24.289Z,2.00
2023-01-11T07:14:24.545Z,1.00
2023-01-11T07:15:25.047Z,1.00
2023-01-11T07:16:25.160Z,4.00
2023-01-11T07:17:25.350Z,6.00
2023-01-11T07:18:25.621Z,6.00
2023-01-11T07:19:25.856Z,6.00
2023-01-11T07:20:26.322Z,9.00
2023-01-11T07:21:26.639Z,10.00
2023-01-11T07:22:26.810Z,10.00
2023-01-11T07:23:28.056Z,10.00
2023-01-11T07:24:27.341Z,10.00
2023-01-11T07:25:27.566Z,11.00
2023-01-11T07:26:27.905Z,11.00
2023-01-11T07:27:28.151Z,12.00
2023-01-11T07:28:28.482Z,13.00
2023-01-11T07:29:28.746Z,14.00
2023-01-11T07:30:29.148Z,15.00
2023-01-11T07:31:29.358Z,12.00
2023-01-11T07:32:29.462Z,13.00
2023-01-11T07:33:29.675Z,13.00
2023-01-11T07:34:29.949Z,11.00
2023-01-11T07:35:30.166Z,11.00
2023-01-11T07:36:30.458Z,13.00
2023-01-11T07:37:30.734Z,13.00
2023-01-11T07:38:31.007Z,16.00
2023-01-11T07:39:42.817Z,19.00
2023-01-11T07:40:32.589Z,20.00
2023-01-11T07:41:31.922Z,21.00
2023-01-11T07:42:32.199Z,20.00
2023-01-11T07:43:32.415Z,17.00
2023-01-11T07:44:32.735Z,19.00
2023-01-11T07:45:44.569Z,23.00
2023-01-11T07:46:34.263Z,23.00
2023-01-11T07:47:33.452Z,31.00
2023-01-11T07:48:33.843Z,27.00
2023-01-11T07:49:34.056Z,30.00
2023-01-11T07:50:34.385Z,29.00
2023-01-11T07:51:34.565Z,30.00
2023-01-11T07:52:34.921Z,34.00
2023-01-11T07:53:35.148Z,32.00
2023-01-11T07:54:35.605Z,28.00
2023-01-11T07:55:35.998Z,31.00
2023-01-11T07:56:36.074Z,31.00
2023-01-11T07:57:36.256Z,36.00
2023-01-11T07:58:36.601Z,34.00
2023-01-11T07:59:36.872Z,36.00
2023-01-11T08:00:37.152Z,42.00
2023-01-11T08:01:37.311Z,43.00
2023-01-11T08:02:37.783Z,40.00
2023-01-11T08:03:38.033Z,40.00
2023-01-11T08:04:38.273Z,43.00
2023-01-11T08:05:38.477Z,47.00
2023-01-11T08:06:38.800Z,47.00
2023-01-11T08:07:39.000Z,46.00
2023-01-11T08:08:39.222Z,50.00
2023-01-11T08:09:39.657Z,51.00
2023-01-11T08:10:41.951Z,52.00
2023-01-11T08:11:40.193Z,51.00
2023-01-11T08:12:40.373Z,43.00
2023-01-11T08:13:40.640Z,39.00
2023-01-11T08:14:40.868Z,39.00
2023-01-11T08:15:41.122Z,39.00
2023-01-11T08:16:41.356Z,39.00
2023-01-11T08:17:41.599Z,47.00
2023-01-11T08:18:41.855Z,56.00
2023-01-11T08:19:42.083Z,61.00
2023-01-11T08:20:42.356Z,70.00
2023-01-11T08:21:42.599Z,63.00
2023-01-11T08:22:43.017Z,50.00
2023-01-11T08:23:43.060Z,73.00
2023-01-11T08:24:43.321Z,64.00
2023-01-11T08:25:43.516Z,74.00
2023-01-11T08:26:44.007Z,78.00
2023-01-11T08:27:44.172Z,80.00
2023-01-11T08:28:44.594Z,78.00
2023-01-11T08:29:44.790Z,91.00
2023-01-11T08:30:45.090Z,84.00
2023-01-11T08:31:45.345Z,80.00
2023-01-11T08:32:45.619Z,90.00
2023-01-11T08:33:45.811Z,92.00
2023-01-11T08:34:46.063Z,80.00
2023-01-11T08:35:46.292Z,68.00
2023-01-11T08:36:46.543Z,69.00
2023-01-11T08:37:46.790Z,90.00
2023-01-11T08:38:47.292Z,96.00
2023-01-11T08:39:47.377Z,111.00
2023-01-11T08:40:47.573Z,114.00
2023-01-11T08:41:47.821Z,113.00
2023-01-11T08:42:48.047Z,115.00
2023-01-11T08:43:48.266Z,119.00
2023-01-11T08:44:48.555Z,113.00
2023-01-11T08:45:48.731Z,122.00
2023-01-11T08:46:49.896Z,135.00
2023-01-11T08:47:49.305Z,127.00
2023-01-11T08:48:49.674Z,139.00
2023-01-11T08:49:49.923Z,132.00
2023-01-11T08:50:50.254Z,119.00
2023-01-11T08:51:50.466Z,136.00
2023-01-11T08:52:50.804Z,144.00
2023-01-11T08:53:50.963Z,130.00
2023-01-11T08:54:51.219Z,121.00
2023-01-11T08:55:51.482Z,111.00
2023-01-11T08:56:51.736Z,106.00
2023-01-11T08:57:51.998Z,115.00
2023-01-11T08:58:52.364Z,116.00
2023-01-11T08:59:52.549Z,119.00
2023-01-11T09:00:52.949Z,122.00
2023-01-11T09:01:53.151Z,105.00
2023-01-11T09:02:53.467Z,100.00
2023-01-11T09:03:53.646Z,105.00
2023-01-11T09:04:53.881Z,101.00
2023-01-11T09:05:54.140Z,90.00
2023-01-11T09:06:54.408Z,105.00
2023-01-11T09:07:54.664Z,107.00
2023-01-11T09:08:54.951Z,89.00
2023-01-11T09:09:55.166Z,120.00
2023-01-11T09:10:55.397Z,108.00
2023-01-11T09:11:55.641Z,103.00
2023-01-11T09:12:55.932Z,105.00
2023-01-11T09:13:56.260Z,107.00
2023-01-11T09:14:56.489Z,119.00
2023-01-11T09:15:56.754Z,101.00
2023-01-11T09:16:57.082Z,113.00
2023-01-11T09:17:57.244Z,109.00
2023-01-11T09:18:57.683Z,99.00
2023-01-11T09:19:57.882Z,115.00
2023-01-11T09:20:58.123Z,113.00
2023-01-11T09:21:58.460Z,106.00
2023-01-11T09:22:58.699Z,99.00
2023-01-11T09:23:59.091Z,132.00
2023-01-11T09:24:59.213Z,118.00
2023-01-11T09:25:59.445Z,139.00
2023-01-11T09:26:59.752Z,112.00
2023-01-11T09:27:59.996Z,144.00
2023-01-11T09:29:00.331Z,131.00
2023-01-11T09:30:00.584Z,123.00
2023-01-11T09:31:00.832Z,123.00
2023-01-11T09:32:01.079Z,142.00
2023-01-11T09:33:01.372Z,131.00
2023-01-11T09:34:01.560Z,129.00
2023-01-11T09:35:01.834Z,129.00
2023-01-11T09:36:02.064Z,117.00
2023-01-11T09:37:02.472Z,117.00
2023-01-11T09:38:02.683Z,127.00
2023-01-11T09:39:02.944Z,136.00
2023-01-11T09:40:03.204Z,127.00
2023-01-11T09:41:03.425Z,156.00
2023-01-11T09:42:03.738Z,121.00
2023-01-11T09:43:03.980Z,125.00
2023-01-11T09:44:04.212Z,144.00
2023-01-11T09:45:04.466Z,119.00
2023-01-11T09:46:06.750Z,141.00
2023-01-11T09:47:05.079Z,125.00
2023-01-11T09:48:05.371Z,147.00
2023-01-11T09:49:05.716Z,168.00
2023-01-11T09:50:05.933Z,136.00
2023-01-11T09:51:06.258Z,146.00
2023-01-11T09:52:06.470Z,169.00
2023-01-11T09:53:06.793Z,167.00
2023-01-11T09:54:07.017Z,161.00
2023-01-11T09:55:07.274Z,194.00
2023-01-11T09:56:07.534Z,158.00
2023-01-11T09:57:07.803Z,162.00
2023-01-11T09:58:08.619Z,165.00
2023-01-11T09:59:08.351Z,180.00
2023-01-11T10:00:08.619Z,164.00
2023-01-11T10:01:08.930Z,160.00
2023-01-11T10:02:09.174Z,151.00
2023-01-11T10:03:09.416Z,179.00
2023-01-11T10:04:09.661Z,167.00
2023-01-11T10:05:10.057Z,179.00
2023-01-11T10:06:10.166Z,178.00
2023-01-11T10:07:10.424Z,197.00
2023-01-11T10:18:25.376Z,208.00
2023-01-11T10:18:29.107Z,179.00
2023-01-11T10:18:33.349Z,181.00
2023-01-11T10:18:37.059Z,191.00
2023-01-11T10:18:38.801Z,202.00
2023-01-11T10:20:15.260Z,244.00
2023-01-11T10:21:14.471Z,245.00
2023-01-11T10:22:14.638Z,241.00
2023-01-11T10:23:15.084Z,262.00
2023-01-11T10:24:15.350Z,262.00
2023-01-11T10:25:15.563Z,285.00
2023-01-11T10:26:15.847Z,292.00
2023-01-11T10:27:16.162Z,296.00
2023-01-11T10:28:16.437Z,310.00
2023-01-11T10:29:16.698Z,322.00
2023-01-11T10:30:16.935Z,348.00
2023-01-11T10:31:17.156Z,358.00
2023-01-11T10:32:17.430Z,376.00
2023-01-11T10:33:17.661Z,392.00
2023-01-11T10:34:17.919Z,399.00
2023-01-11T10:35:18.231Z,417.00
2023-01-11T10:36:18.410Z,381.00
2023-01-11T10:37:18.730Z,340.00
2023-01-11T10:38:18.935Z,433.00
2023-01-11T10:39:19.228Z,417.00
2023-01-11T10:40:19.554Z,426.00
2023-01-11T10:41:19.774Z,412.00
2023-01-11T10:42:20.081Z,435.00
2023-01-11T10:43:20.276Z,447.00
2023-01-11T10:44:20.542Z,437.00
2023-01-11T10:45:20.971Z,416.00
2023-01-11T10:46:21.030Z,431.00
2023-01-11T10:47:21.444Z,395.00
2023-01-11T10:48:21.627Z,372.00
2023-01-11T10:49:22.019Z,399.00
2023-01-11T10:50:22.297Z,316.00
2023-01-11T10:51:22.575Z,301.00
2023-01-11T10:52:22.813Z,317.00
2023-01-11T10:53:24.861Z,335.00
2023-01-11T10:54:23.398Z,257.00
2023-01-11T10:55:23.617Z,300.00
2023-01-11T10:56:23.852Z,394.00
2023-01-11T10:57:24.230Z,417.00
2023-01-11T10:58:24.455Z,380.00
2023-01-11T10:59:24.757Z,419.00
2023-01-11T11:00:25.035Z,552.00
2023-01-11T11:01:25.418Z,443.00
2023-01-11T11:02:26.334Z,423.00
2023-01-11T11:03:26.016Z,357.00
2023-01-11T11:04:26.325Z,454.00
2023-01-11T11:05:26.559Z,407.00
2023-01-11T11:06:26.784Z,442.00
2023-01-11T11:07:27.570Z,359.00
2023-01-11T11:08:27.359Z,426.00
2023-01-11T11:09:27.725Z,421.00
2023-01-11T11:10:27.957Z,363.00
2023-01-11T11:11:28.250Z,352.00
2023-01-11T11:12:28.479Z,317.00
2023-01-11T11:13:28.738Z,331.00
2023-01-11T11:14:28.991Z,378.00
2023-01-11T11:15:29.259Z,322.00
2023-01-11T11:16:29.522Z,304.00
2023-01-11T11:17:29.814Z,392.00
2023-01-11T11:18:30.510Z,474.00
2023-01-11T11:19:30.349Z,581.00
2023-01-11T11:20:30.603Z,722.00
2023-01-11T11:21:30.867Z,749.00
2023-01-11T11:22:31.114Z,798.00
2023-01-11T11:23:31.400Z,791.00
2023-01-11T11:24:31.755Z,813.00
2023-01-11T11:25:31.990Z,819.00
2023-01-11T11:26:32.235Z,727.00
2023-01-11T11:27:32.475Z,703.00
2023-01-11T11:28:32.748Z,717.00
2023-01-11T11:29:33.345Z,677.00
2023-01-11T11:30:33.328Z,668.00
2023-01-11T11:31:34.030Z,675.00
2023-01-11T11:32:36.419Z,698.00
2023-01-11T11:33:34.277Z,756.00
2023-01-11T11:34:34.560Z,783.00
2023-01-11T11:35:34.791Z,784.00
2023-01-11T11:36:35.057Z,790.00
2023-01-11T11:37:35.313Z,753.00
2023-01-11T11:38:35.891Z,730.00
2023-01-11T11:39:35.853Z,752.00
2023-01-11T11:40:36.062Z,735.00
2023-01-11T11:41:36.290Z,738.00
2023-01-11T11:42:36.938Z,774.00
2023-01-11T11:43:36.859Z,820.00
2023-01-11T11:44:37.060Z,835.00
2023-01-11T11:45:37.408Z,827.00
2023-01-11T11:46:37.621Z,959.00
2023-01-11T11:47:37.923Z,1046.00
2023-01-11T11:48:38.139Z,983.00
2023-01-11T11:49:38.625Z,838.00
2023-01-11T11:50:46.150Z,694.00
2023-01-11T11:51:40.137Z,572.00
2023-01-11T11:52:39.434Z,520.00
2023-01-11T11:53:39.745Z,517.00
2023-01-11T11:54:40.396Z,500.00
2023-01-11T11:55:40.398Z,509.00
2023-01-11T11:56:40.600Z,546.00
2023-01-11T11:57:40.878Z,603.00
2023-01-11T11:58:41.103Z,627.00
2023-01-11T11:59:41.375Z,678.00
2023-01-11T12:00:41.673Z,737.00
2023-01-11T12:01:41.982Z,850.00
2023-01-11T12:02:42.181Z,989.00
2023-01-11T12:03:42.452Z,893.00
2023-01-11T12:04:42.761Z,805.00
2023-01-11T12:05:43.041Z,711.00
2023-01-11T12:06:43.479Z,639.00
2023-01-11T12:07:54.277Z,524.00
2023-01-11T12:08:44.802Z,507.00
2023-01-11T12:09:44.108Z,490.00
2023-01-11T12:10:44.421Z,476.00
2023-01-11T12:11:44.666Z,463.00
2023-01-11T12:12:44.972Z,417.00
2023-01-11T12:13:45.227Z,398.00
2023-01-11T12:14:45.459Z,381.00
2023-01-11T12:15:45.859Z,369.00
2023-01-11T12:16:46.173Z,384.00
2023-01-11T12:17:46.405Z,406.00
2023-01-11T12:18:47.230Z,401.00
2023-01-11T12:19:47.026Z,385.00
2023-01-11T12:20:47.231Z,379.00
2023-01-11T12:21:47.601Z,403.00
2023-01-11T12:22:47.829Z,408.00
2023-01-11T12:23:48.162Z,432.00
2023-01-11T12:24:48.352Z,474.00
2023-01-11T12:25:48.599Z,467.00
2023-01-11T12:26:48.972Z,412.00
2023-01-11T12:27:49.123Z,374.00
2023-01-11T12:28:49.408Z,383.00
2023-01-11T12:29:49.826Z,388.00
2023-01-11T12:30:49.906Z,410.00
2023-01-11T12:31:50.181Z,398.00
2023-01-11T12:32:50.846Z,366.00
2023-01-11T12:33:50.733Z,331.00
2023-01-11T12:34:51.025Z,323.00
2023-01-11T12:35:51.240Z,314.00
2023-01-11T12:36:51.592Z,318.00
2023-01-11T12:37:51.793Z,328.00
2023-01-11T12:38:52.025Z,351.00
2023-01-11T12:39:52.362Z,400.00
2023-01-11T12:40:52.570Z,433.00
2023-01-11T12:41:52.873Z,464.00
2023-01-11T12:42:53.103Z,475.00
2023-01-11T12:43:53.389Z,469.00
2023-01-11T12:44:53.670Z,483.00
2023-01-11T12:45:53.981Z,483.00
2023-01-11T12:46:54.238Z,483.00
2023-01-11T12:47:54.486Z,450.00
2023-01-11T12:48:54.756Z,416.00
2023-01-11T12:49:55.823Z,393.00
2023-01-11T12:50:55.566Z,372.00
2023-01-11T12:51:55.711Z,347.00
2023-01-11T12:52:55.964Z,318.00
2023-01-11T12:53:56.319Z,296.00
2023-01-11T12:54:56.526Z,288.00
2023-01-11T12:55:56.827Z,294.00
2023-01-11T12:56:57.171Z,294.00
2023-01-11T12:57:57.417Z,283.00
2023-01-11T12:58:57.740Z,273.00
2023-01-11T12:59:58.124Z,281.00
2023-01-11T13:00:58.418Z,278.00
2023-01-11T13:01:58.651Z,245.00
2023-01-11T13:02:58.941Z,232.00
2023-01-11T13:03:59.226Z,233.00
2023-01-11T13:04:59.487Z,252.00
2023-01-11T13:06:00.057Z,282.00
2023-01-11T13:06:59.997Z,297.00
2023-01-11T13:08:00.340Z,310.00
2023-01-11T13:09:00.665Z,313.00